Terminal Aerodrome Forecast
Issued by NWS

Home | Current Version | Previous Version | Text Only | Print | Product List | Glossary On
Versions: 1 2 3 4 5 6 7 8 9 10 11 12 13 14 15 16 17 18
000
FTAK31 PAJN 042300
TAFASI
TAF
PASI 042322Z 0500/0524 22007KT P6SM BKN220
     FM050300 31006KT P6SM SCT100 BKN180
     FM051200 30005KT P6SM SCT006 BKN045 BKN200
     FM052000 28009KT P6SM FEW015 SCT040 BKN150=

USA.gov is the U.S. government's official web portal to all federal, state and local government web resources and services.